createdAt,value
2023-05-02T06:57:23.361Z,13.82
2023-05-02T06:59:50.347Z,13.99
2023-05-02T07:02:17.676Z,14.14
2023-05-02T07:04:44.897Z,14.30
2023-05-02T07:07:11.866Z,14.44
2023-05-02T07:09:38.862Z,14.59
2023-05-02T07:12:07.012Z,14.59
2023-05-02T07:14:34.146Z,14.62
2023-05-02T07:17:07.412Z,14.81
2023-05-02T07:19:34.300Z,14.84
2023-05-02T07:22:01.392Z,14.87
2023-05-02T07:24:28.403Z,14.87
2023-05-02T07:26:55.310Z,14.94
2023-05-02T07:29:22.216Z,15.09
2023-05-02T07:31:49.060Z,15.03
2023-05-02T07:34:15.954Z,15.10
2023-05-02T07:36:42.871Z,15.17
2023-05-02T07:39:10.170Z,15.26
2023-05-02T07:41:37.118Z,15.43
2023-05-02T07:44:04.106Z,15.57
2023-05-02T07:46:31.742Z,15.52
2023-05-02T07:48:58.640Z,15.50
2023-05-02T07:51:27.123Z,15.74
2023-05-02T07:53:56.010Z,15.76
2023-05-02T07:56:22.914Z,15.88
2023-05-02T07:58:51.769Z,16.03
2023-05-02T08:01:19.157Z,16.06
2023-05-02T08:03:46.404Z,16.08
2023-05-02T08:06:13.544Z,16.13
2023-05-02T08:08:40.525Z,16.22
2023-05-02T08:11:07.437Z,16.26
2023-05-02T08:13:34.904Z,16.34
2023-05-02T08:16:02.925Z,16.52
2023-05-02T08:18:30.597Z,16.59
2023-05-02T08:21:00.380Z,16.46
2023-05-02T08:23:27.337Z,16.42
2023-05-02T08:25:54.780Z,16.43
2023-05-02T08:28:21.730Z,16.36
2023-05-02T08:30:49.322Z,16.32
2023-05-02T08:33:16.408Z,16.33
2023-05-02T08:35:43.522Z,16.40
2023-05-02T08:38:10.926Z,16.39
2023-05-02T08:40:42.709Z,16.57
2023-05-02T08:43:12.073Z,16.79
2023-05-02T08:45:44.220Z,17.16
2023-05-02T08:48:13.576Z,17.31
2023-05-02T08:50:42.755Z,17.29
2023-05-02T08:53:11.684Z,17.27
2023-05-02T08:55:40.811Z,17.32
2023-05-02T08:58:11.063Z,17.46
2023-05-02T09:00:42.418Z,17.58
2023-05-02T09:03:19.325Z,17.63
2023-05-02T09:06:00.667Z,17.50
2023-05-02T09:08:27.585Z,17.39
2023-05-02T09:10:55.121Z,17.33
2023-05-02T09:13:39.569Z,17.32
2023-05-02T09:16:06.609Z,17.40
2023-05-02T09:18:38.935Z,17.41
2023-05-02T09:21:09.341Z,17.50
2023-05-02T09:23:53.097Z,17.54
2023-05-02T09:26:34.780Z,17.67
2023-05-02T09:29:05.647Z,17.72
2023-05-02T09:31:55.077Z,17.69
2023-05-02T09:34:23.524Z,17.70
2023-05-02T09:36:54.602Z,17.75
2023-05-02T09:39:29.493Z,17.75
2023-05-02T09:41:57.754Z,17.81
2023-05-02T09:44:26.668Z,17.89
2023-05-02T09:46:56.157Z,18.10
2023-05-02T09:49:45.333Z,18.14
2023-05-02T09:52:18.102Z,18.17
2023-05-02T09:54:47.141Z,18.41
2023-05-02T09:57:14.287Z,18.48
2023-05-02T09:59:41.772Z,18.51
2023-05-02T10:02:12.166Z,18.53
2023-05-02T10:04:40.163Z,18.56
2023-05-02T10:07:10.849Z,18.58
2023-05-02T10:09:43.905Z,18.59
2023-05-02T10:12:15.393Z,18.55
2023-05-02T10:14:48.883Z,18.58
2023-05-02T10:17:31.257Z,18.56
2023-05-02T10:20:04.162Z,18.55
2023-05-02T10:22:31.961Z,18.56
2023-05-02T10:25:00.460Z,18.59
2023-05-02T10:27:30.977Z,18.58
2023-05-02T10:29:59.684Z,18.58
2023-05-02T10:32:29.915Z,18.61
2023-05-02T10:35:04.827Z,18.70
2023-05-02T10:37:36.651Z,18.87
2023-05-02T10:40:04.398Z,18.86
2023-05-02T10:42:35.659Z,19.00
2023-05-02T10:45:03.658Z,19.22
2023-05-02T10:47:32.905Z,19.38
2023-05-02T10:50:01.730Z,19.48
2023-05-02T10:52:34.504Z,19.54
2023-05-02T10:55:25.248Z,19.74
2023-05-02T10:58:01.151Z,20.01
2023-05-02T11:00:33.929Z,20.09
2023-05-02T11:03:02.269Z,20.26
2023-05-02T11:05:29.688Z,20.20
2023-05-02T11:08:15.705Z,20.51
2023-05-02T11:10:43.289Z,20.65
2023-05-02T11:13:10.273Z,20.66
2023-05-02T11:15:40.178Z,20.66
2023-05-02T11:18:08.113Z,20.71
2023-05-02T11:20:43.079Z,20.71
2023-05-02T11:23:16.561Z,20.71
2023-05-02T11:25:45.717Z,20.82
2023-05-02T11:28:36.976Z,20.84
2023-05-02T11:31:06.205Z,20.80
2023-05-02T11:33:34.642Z,20.84
2023-05-02T11:36:01.873Z,20.85
2023-05-02T11:38:39.117Z,21.02
2023-05-02T11:41:06.413Z,21.00
2023-05-02T11:43:33.394Z,21.09
2023-05-02T11:46:02.331Z,21.17
2023-05-02T11:48:31.294Z,21.28
2023-05-02T11:51:03.838Z,21.24
2023-05-02T11:53:31.798Z,21.39
2023-05-02T11:56:01.328Z,21.50
2023-05-02T11:58:32.609Z,21.62
2023-05-02T12:01:21.617Z,21.78
2023-05-02T12:03:49.732Z,21.87
2023-05-02T12:06:20.798Z,21.99
2023-05-02T12:08:49.427Z,21.89
2023-05-02T12:11:17.339Z,21.67
2023-05-02T12:13:47.008Z,21.50
2023-05-02T12:16:14.681Z,21.53
2023-05-02T12:18:41.978Z,21.58
2023-05-02T12:21:09.257Z,21.64
2023-05-02T12:23:37.593Z,21.65
2023-05-02T12:26:22.344Z,21.52
2023-05-02T12:28:51.686Z,21.48
2023-05-02T12:31:18.900Z,21.38
2023-05-02T12:33:48.529Z,21.33
2023-05-02T12:36:15.987Z,21.29
2023-05-02T12:38:53.868Z,21.31
2023-05-02T12:41:43.865Z,21.29
2023-05-02T12:44:11.135Z,21.47
2023-05-02T12:46:39.019Z,21.57
2023-05-02T12:49:10.129Z,21.50
2023-05-02T12:51:38.069Z,21.43
2023-05-02T12:54:05.630Z,21.55
2023-05-02T12:56:43.904Z,21.68
2023-05-02T12:59:26.452Z,21.58
2023-05-02T13:01:53.490Z,21.47
2023-05-02T13:04:20.599Z,21.35
2023-05-02T13:06:47.599Z,21.31
2023-05-02T13:09:14.593Z,21.39
2023-05-02T13:11:42.790Z,21.35
2023-05-02T13:14:11.712Z,21.30
2023-05-02T13:16:38.663Z,21.29
2023-05-02T13:19:06.061Z,21.26
2023-05-02T13:21:33.053Z,21.28
2023-05-02T13:24:00.028Z,21.30
2023-05-02T13:26:27.065Z,21.36
2023-05-02T13:28:53.984Z,21.29
2023-05-02T13:31:20.947Z,21.34
2023-05-02T13:33:48.036Z,21.39
2023-05-02T13:36:15.039Z,21.41
2023-05-02T13:38:42.137Z,21.56
2023-05-02T13:41:09.069Z,21.54
2023-05-02T13:43:36.127Z,21.53
2023-05-02T13:46:03.453Z,21.62
2023-05-02T13:48:31.157Z,21.63
2023-05-02T13:50:58.198Z,21.76
2023-05-02T13:53:25.138Z,21.66
2023-05-02T13:55:52.076Z,21.66
2023-05-02T13:58:19.050Z,21.65
2023-05-02T14:00:47.588Z,21.64
2023-05-02T14:03:14.995Z,21.64
2023-05-02T14:05:44.087Z,21.52
2023-05-02T14:08:11.712Z,21.49
2023-05-02T14:10:39.451Z,21.46
2023-05-02T14:13:06.355Z,21.53
2023-05-02T14:15:33.324Z,21.54
2023-05-02T14:18:00.335Z,21.53
2023-05-02T14:20:27.380Z,21.54
2023-05-02T14:22:54.551Z,21.52
2023-05-02T14:25:21.517Z,21.58
2023-05-02T14:27:48.633Z,21.55
2023-05-02T14:30:15.714Z,21.46
2023-05-02T14:32:42.993Z,21.50
2023-05-02T14:35:10.313Z,21.48
2023-05-02T14:37:37.311Z,21.45
2023-05-02T14:40:04.898Z,21.57
2023-05-02T14:42:32.155Z,21.57
2023-05-02T14:45:02.499Z,21.58
2023-05-02T14:47:32.941Z,21.57
2023-05-02T14:50:00.194Z,21.59
2023-05-02T14:52:28.013Z,21.54
2023-05-02T14:54:54.999Z,21.43
2023-05-02T14:57:22.341Z,21.32
2023-05-02T14:59:49.562Z,21.27
2023-05-02T15:02:16.572Z,21.04
2023-05-02T15:04:43.839Z,21.00
2023-05-02T15:07:10.855Z,20.81
2023-05-02T15:09:37.757Z,20.86
2023-05-02T15:12:05.072Z,20.80
2023-05-02T15:14:32.037Z,20.90
2023-05-02T15:16:59.057Z,20.71
2023-05-02T15:19:26.235Z,20.78
2023-05-02T15:21:57.793Z,20.83
2023-05-02T15:24:25.124Z,20.91
2023-05-02T15:26:52.903Z,20.98
2023-05-02T15:29:19.868Z,20.90
2023-05-02T15:31:46.907Z,20.98
2023-05-02T15:34:15.241Z,21.01
2023-05-02T15:36:43.380Z,20.98
2023-05-02T15:39:11.713Z,20.97
2023-05-02T15:41:38.695Z,20.83
2023-05-02T15:44:05.728Z,21.03
2023-05-02T15:46:32.774Z,21.01
2023-05-02T15:48:59.803Z,21.20
2023-05-02T15:51:27.285Z,21.15
2023-05-02T15:53:54.723Z,21.20
2023-05-02T15:56:21.857Z,21.17
2023-05-02T15:58:49.128Z,21.04
2023-05-02T16:01:16.197Z,20.84
2023-05-02T16:03:43.390Z,20.70
2023-05-02T16:06:10.526Z,20.70
2023-05-02T16:08:37.467Z,20.55
2023-05-02T16:11:04.411Z,20.34
2023-05-02T16:13:31.590Z,20.39
2023-05-02T16:15:58.559Z,20.34
2023-05-02T16:18:28.663Z,20.26
2023-05-02T16:20:59.709Z,20.29
2023-05-02T16:23:26.822Z,20.37
2023-05-02T16:26:01.035Z,20.34
2023-05-02T16:28:28.144Z,20.05
2023-05-02T16:30:55.745Z,20.06
2023-05-02T16:33:22.910Z,20.01
2023-05-02T16:35:49.962Z,19.89
2023-05-02T16:38:17.395Z,19.78
2023-05-02T16:40:44.401Z,19.53
2023-05-02T16:43:11.413Z,19.40
2023-05-02T16:45:38.969Z,19.32
2023-05-02T16:48:06.125Z,19.29
2023-05-02T16:50:33.094Z,19.09
2023-05-02T16:53:00.046Z,18.85
2023-05-02T16:55:26.981Z,18.63
2023-05-02T16:57:54.116Z,18.46
2023-05-02T17:00:21.269Z,18.03
2023-05-02T17:02:48.674Z,18.07
2023-05-02T17:05:16.944Z,17.99
2023-05-02T17:07:44.034Z,17.81
2023-05-02T17:10:11.936Z,17.67
2023-05-02T17:12:38.865Z,17.52
2023-05-02T17:15:07.549Z,17.43
2023-05-02T17:21:57.244Z,17.23
